Brushvale, Minnesota
Current Conditions -  °F | °C
As of 8:15 AM on Tuesday 27 Jan 2015 (Local Time) from KBWP Reporting Station
Overcast Overcast  
Wind Chill: 20°   Ceiling: 100
Heat Index: 28°   Visibility: 1mi
Dew Point: 27°   Wind: 9mph
Humidity: 93%   Direction: 140°SE
Pressure: 30.09"   Gusts: NA
Location:  46.3422°N, 96.4653°W
Report Text: KBWP 271415Z AUTO 14008KT 1SM OVC001 M02/M03 A3009 RMK AO1
Loading
Personal Weather Stations






























Interactive Weather Map New forecast layout! Learn more

10-Day Weather Forecast

Advertisements
Track Severe Weather on mobile